Wels, Austria
Current Conditions -  °F | °C
As of 11:20 AM on Monday 24 Nov 2014 (Local Time) from LOWL Reporting Station
Haze Haze  
Wind Chill: 34°   Ceiling: 800
Heat Index: 39°   Visibility: 3mi
Dew Point: 37°   Wind: 8mph
Humidity: 93%   Direction: 90°E
Pressure: 30.24"   Gusts: NA
Location:  48.17°N, 14.03°E
Report Text: LOWL 240920Z 09007KT 060V120 5000 BR OVC008 04/03 Q1024 NOSIG
Loading
Personal Weather Stations






























Interactive Weather Map New forecast layout! Learn more

10-Day Weather Forecast

Advertisements
Track Severe Weather on mobile